Time;durP1;ratioP1;P1;durP2;ratioP2;P2;SDS_P1;SDS_P2;PMS_P1;PMS_P2;Temp;Humidity;BMP_temperature;BMP_pressure;BME280_temperature;BME280_humidity;BME280_pressure;Samples;Min_cycle;Max_cycle;Signal;HPM_P1;HPM_P2
2023/05/22 00:01:45;;;;;;;0.40;0.40;;;25.80;48.00;;;;;;4960335;28;93406;-51
2023/05/22 00:04:19;;;;;;;0.90;0.80;;;25.80;48.70;;;;;;4959978;28;92467;-51
2023/05/22 00:06:49;;;;;;;2.60;0.70;;;25.80;48.70;;;;;;4958926;28;93102;-51
2023/05/22 00:09:17;;;;;;;0.50;0.50;;;25.80;48.40;;;;;;4959226;28;92783;-51
2023/05/22 00:11:45;;;;;;;1.93;0.40;;;25.70;48.50;;;;;;4960271;28;92066;-51
2023/05/22 00:14:13;;;;;;;1.33;0.60;;;25.80;62.60;;;;;;4960536;28;92024;-51
2023/05/22 00:16:41;;;;;;;1.80;0.87;;;25.80;63.30;;;;;;4959587;28;94118;-51
2023/05/22 00:19:15;;;;;;;5.10;0.70;;;25.80;60.50;;;;;;4959851;28;93727;-51
2023/05/22 00:21:43;;;;;;;1.57;0.80;;;25.80;63.30;;;;;;4960463;28;91906;-51
2023/05/22 00:24:13;;;;;;;0.77;0.70;;;25.80;65.40;;;;;;4960846;28;92102;-51
2023/05/22 00:26:41;;;;;;;0.70;0.70;;;25.80;63.40;;;;;;4957364;28;93217;-51
2023/05/22 00:29:09;;;;;;;1.20;0.60;;;25.80;65.20;;;;;;4960012;28;94003;-51
2023/05/22 00:31:37;;;;;;;0.73;0.67;;;25.70;55.80;;;;;;4958140;28;92222;-51
2023/05/22 00:34:05;;;;;;;0.77;0.77;;;25.70;57.70;;;;;;4957875;28;91461;-51
2023/05/22 00:36:33;;;;;;;5.90;0.87;;;25.70;57.60;;;;;;4957360;28;94165;-51
2023/05/22 00:39:02;;;;;;;0.53;0.53;;;25.70;58.30;;;;;;4959467;28;94110;-51
2023/05/22 00:41:32;;;;;;;2.63;1.10;;;25.70;60.50;;;;;;4956949;28;93014;-51
2023/05/22 00:44:01;;;;;;;1.10;0.77;;;25.70;66.80;;;;;;4959943;28;92128;-51
2023/05/22 00:46:29;;;;;;;1.20;0.70;;;25.70;67.70;;;;;;4959311;28;94194;-51
2023/05/22 00:49:00;;;;;;;1.17;0.67;;;25.70;54.80;;;;;;4957267;28;93852;-51
2023/05/22 00:51:28;;;;;;;1.57;1.27;;;25.70;54.70;;;;;;4960170;28;92002;-51
2023/05/22 00:53:56;;;;;;;2.47;0.97;;;25.70;56.60;;;;;;4954275;28;93676;-51
2023/05/22 00:56:25;;;;;;;0.60;0.60;;;25.70;56.90;;;;;;4956979;28;93873;-51
2023/05/22 00:58:55;;;;;;;3.10;0.63;;;25.70;57.50;;;;;;4959808;28;92852;-51
2023/05/22 01:01:25;;;;;;;2.50;0.90;;;25.70;57.30;;;;;;4959289;28;92741;-51
2023/05/22 01:03:54;;;;;;;1.03;0.70;;;25.70;61.30;;;;;;4957732;28;92093;-51
2023/05/22 01:06:23;;;;;;;1.57;0.70;;;25.70;62.20;;;;;;4958487;28;95234;-51
2023/05/22 01:08:51;;;;;;;6.60;0.87;;;25.70;59.20;;;;;;4959077;28;93687;-51
2023/05/22 01:11:22;;;;;;;1.50;0.70;;;25.70;59.90;;;;;;4959199;28;93383;-51
2023/05/22 01:13:53;;;;;;;1.67;0.80;;;25.70;59.80;;;;;;4959456;28;92174;-51
2023/05/22 01:16:28;;;;;;;0.60;0.60;;;25.70;60.70;;;;;;4956756;28;93233;-51
2023/05/22 01:19:01;;;;;;;0.40;0.40;;;25.70;62.50;;;;;;4958845;28;92819;-51
2023/05/22 01:21:34;;;;;;;1.33;0.53;;;25.80;64.40;;;;;;4958645;28;91910;-51
2023/05/22 01:24:25;;;;;;;2.13;0.80;;;25.70;61.90;;;;;;4959477;28;91425;-51
2023/05/22 01:27:16;;;;;;;1.87;0.70;;;25.80;63.60;;;;;;4958133;28;94259;-51
2023/05/22 01:29:46;;;;;;;0.80;0.80;;;25.70;62.10;;;;;;4958649;28;93963;-51
2023/05/22 01:32:17;;;;;;;1.43;0.73;;;25.70;63.30;;;;;;4958558;28;93119;-51
2023/05/22 01:34:45;;;;;;;1.63;0.57;;;25.60;63.40;;;;;;4959063;28;92299;-51
2023/05/22 01:37:13;;;;;;;1.13;0.70;;;25.60;64.60;;;;;;4958697;28;94982;-51
2023/05/22 01:39:41;;;;;;;0.73;0.60;;;25.60;62.10;;;;;;4956034;28;94611;-51
2023/05/22 01:42:09;;;;;;;0.97;0.63;;;25.60;64.50;;;;;;4959149;28;92092;-51
2023/05/22 01:44:37;;;;;;;0.77;0.60;;;25.60;65.30;;;;;;4958634;28;92183;-51
2023/05/22 01:47:07;;;;;;;1.33;1.00;;;25.60;65.30;;;;;;4958664;28;94295;-51
2023/05/22 01:49:36;;;;;;;1.27;0.60;;;25.60;66.60;;;;;;4958539;28;94119;-51
2023/05/22 01:52:11;;;;;;;1.80;0.77;;;25.60;67.00;;;;;;4959059;28;92043;-51
2023/05/22 01:54:41;;;;;;;2.20;1.10;;;25.60;68.10;;;;;;4954439;28;92341;-51
2023/05/22 01:57:12;;;;;;;0.80;0.63;;;25.60;69.20;;;;;;4955249;28;94225;-51
2023/05/22 01:59:47;;;;;;;2.80;0.70;;;25.60;68.80;;;;;;4958616;28;95065;-51
2023/05/22 02:02:16;;;;;;;1.07;0.90;;;25.60;70.20;;;;;;4956689;28;92101;-51
2023/05/22 02:04:49;;;;;;;0.83;0.63;;;25.60;74.90;;;;;;4958653;28;92859;-51
2023/05/22 02:07:17;;;;;;;1.83;0.97;;;25.90;75.80;;;;;;4956800;28;94243;-52
2023/05/22 02:09:45;;;;;;;0.50;0.50;;;25.60;74.50;;;;;;4958512;28;93600;-51
2023/05/22 02:12:13;;;;;;;1.47;0.90;;;;;;;;;;4957223;28;92141;-50
2023/05/22 02:14:42;;;;;;;0.63;0.60;;;25.50;77.40;;;;;;4941439;28;91437;-51
2023/05/22 02:17:10;;;;;;;0.97;0.73;;;25.60;77.50;;;;;;4958243;28;95680;-51
2023/05/22 02:19:38;;;;;;;1.23;0.60;;;;;;;;;;4957884;28;93119;-51
2023/05/22 02:22:12;;;;;;;2.43;0.70;;;;;;;;;;4958236;28;92994;-51
2023/05/22 02:24:41;;;;;;;1.93;0.80;;;;;;;;;;4958315;28;92066;-51
2023/05/22 02:27:09;;;;;;;1.23;0.60;;;;;;;;;;4957593;28;93242;-51
2023/05/22 02:29:37;;;;;;;0.60;0.60;;;25.60;90.60;;;;;;4958285;28;92752;-51
2023/05/22 02:32:06;;;;;;;1.47;0.60;;;;;;;;;;4957756;28;92193;-51
2023/05/22 02:34:36;;;;;;;1.10;0.73;;;25.40;78.00;;;;;;4958252;28;92265;-51
2023/05/22 02:37:05;;;;;;;0.63;0.63;;;25.60;76.70;;;;;;4958089;28;94182;-51
2023/05/22 02:39:34;;;;;;;0.60;0.60;;;;;;;;;;4958582;28;94060;-51
2023/05/22 02:42:03;;;;;;;1.57;0.90;;;;;;;;;;4958190;28;92040;-51
2023/05/22 02:44:31;;;;;;;1.40;0.97;;;;;;;;;;4957022;28;92232;-51
2023/05/22 02:46:59;;;;;;;1.90;1.17;;;25.60;82.70;;;;;;4956275;28;94203;-51
2023/05/22 02:49:27;;;;;;;0.80;0.80;;;25.60;78.30;;;;;;4955899;28;94914;-51
2023/05/22 02:51:55;;;;;;;1.13;0.67;;;25.60;74.30;;;;;;4958557;28;91947;-51
2023/05/22 02:54:23;;;;;;;3.73;0.90;;;25.50;76.70;;;;;;4957475;28;92072;-51
2023/05/22 02:56:53;;;;;;;0.93;0.50;;;25.50;79.30;;;;;;4957488;28;94248;-51
2023/05/22 02:59:21;;;;;;;2.10;0.77;;;25.50;81.80;;;;;;4955922;28;92394;-51
2023/05/22 03:01:49;;;;;;;0.53;0.53;;;;;;;;;;4957932;28;92244;-51
2023/05/22 03:04:18;;;;;;;0.80;0.73;;;;;;;;;;4958118;28;91395;-51
2023/05/22 03:06:46;;;;;;;1.03;0.60;;;;;;;;;;4957677;28;94169;-51
2023/05/22 03:09:14;;;;;;;3.43;1.20;;;;;;;;;;4971935;28;93999;-51
2023/05/22 03:11:43;;;;;;;0.63;0.60;;;;;;;;;;4960494;28;93001;-51
2023/05/22 03:14:12;;;;;;;1.47;0.80;;;;;;;;;;4959141;28;92048;-51
2023/05/22 03:16:41;;;;;;;2.17;0.93;;;;;;;;;;4958831;28;94188;-51
2023/05/22 03:19:09;;;;;;;1.43;0.73;;;;;;;;;;4958967;28;93687;-51
2023/05/22 03:21:38;;;;;;;0.77;0.63;;;;;;;;;;4959400;28;92059;-52
2023/05/22 03:24:07;;;;;;;1.17;0.67;;;;;;;;;;4962035;28;92033;-51
2023/05/22 03:26:35;;;;;;;1.87;0.70;;;;;;;;;;4962176;28;93269;-51
2023/05/22 03:29:03;;;;;;;1.63;0.83;;;;;;;;;;4961623;28;93848;-51
2023/05/22 03:31:33;;;;;;;1.37;1.03;;;;;;;;;;4962122;28;92046;-52
2023/05/22 03:34:02;;;;;;;0.83;0.83;;;;;;;;;;4962366;28;92056;-51
2023/05/22 03:36:32;;;;;;;1.90;0.67;;;;;;;;;;4961737;28;93915;-51
2023/05/22 03:39:01;;;;;;;1.13;0.60;;;;;;;;;;4961337;28;95025;-51
2023/05/22 03:41:29;;;;;;;0.97;0.70;;;;;;;;;;4962677;28;92162;-51
2023/05/22 03:43:58;;;;;;;1.10;0.83;;;;;;;;;;4961581;28;92063;-52
2023/05/22 03:46:26;;;;;;;0.63;0.63;;;;;;;;;;4962158;28;94181;-51
2023/05/22 03:48:56;;;;;;;1.43;0.73;;;;;;;;;;4961081;28;93807;-51
2023/05/22 03:51:24;;;;;;;0.70;0.70;;;;;;;;;;4962703;28;92052;-51
2023/05/22 03:53:52;;;;;;;0.83;0.70;;;;;;;;;;4962403;28;91286;-52
2023/05/22 03:56:21;;;;;;;2.43;0.93;;;;;;;;;;4961852;28;94160;-52
2023/05/22 03:58:50;;;;;;;0.50;0.50;;;;;;;;;;4961696;28;94158;-52
2023/05/22 04:01:18;;;;;;;1.03;0.70;;;;;;;;;;4961773;28;94016;-52
2023/05/22 04:03:46;;;;;;;1.37;0.80;;;;;;;;;;4962000;28;92553;-51
2023/05/22 04:06:16;;;;;;;1.03;0.70;;;;;;;;;;4955381;28;94281;-51
2023/05/22 04:08:44;;;;;;;1.70;0.63;;;;;;;;;;4959158;28;92821;-52
2023/05/22 04:11:14;;;;;;;0.50;0.50;;;;;;;;;;4962012;28;92073;-52
2023/05/22 04:13:42;;;;;;;0.93;0.80;;;;;;;;;;4961149;28;92109;-52
2023/05/22 04:16:11;;;;;;;0.60;0.60;;;;;;;;;;4965000;28;94244;-51
2023/05/22 04:18:39;;;;;;;1.10;0.70;;;;;;;;;;4969870;28;92768;-51
2023/05/22 04:21:08;;;;;;;1.10;1.00;;;;;;;;;;4961204;28;92079;-51
2023/05/22 04:23:42;;;;;;;3.50;1.10;;;;;;;;;;4961645;28;91980;-51
2023/05/22 04:26:10;;;;;;;2.53;1.00;;;;;;;;;;4941271;28;94128;-51
2023/05/22 04:28:39;;;;;;;1.30;0.93;;;;;;;;;;4950773;28;94856;-51
2023/05/22 04:31:07;;;;;;;2.37;0.90;;;;;;;;;;4961643;28;92137;-51
2023/05/22 04:33:37;;;;;;;1.00;0.90;;;;;;;;;;4961377;28;92044;-52
2023/05/22 04:36:09;;;;;;;2.30;1.03;;;;;;;;;;4960167;28;93328;-51
2023/05/22 04:38:43;;;;;;;1.00;0.90;;;;;;;;;;4960850;28;93757;-51
2023/05/22 04:41:13;;;;;;;0.80;0.80;;;;;;;;;;4961419;28;92163;-51
2023/05/22 04:43:41;;;;;;;0.93;0.70;;;;;;;;;;4961077;28;91401;-51
2023/05/22 04:46:09;;;;;;;0.77;0.70;;;;;;;;;;4960305;28;93303;-52
2023/05/22 04:48:39;;;;;;;1.03;0.90;;;;;;;;;;4960399;28;93857;-51
2023/05/22 04:51:08;;;;;;;1.33;0.80;;;;;;;;;;4958334;28;93465;-51
2023/05/22 04:53:37;;;;;;;0.80;0.80;;;;;;;;;;4960168;28;92541;-51
2023/05/22 04:56:07;;;;;;;0.97;0.73;;;;;;;;;;4959796;28;94217;-52
2023/05/22 04:58:36;;;;;;;1.70;0.80;;;;;;;;;;4960129;28;92712;-52
2023/05/22 05:01:05;;;;;;;0.53;0.53;;;;;;;;;;4959801;28;93970;-51
2023/05/22 05:03:34;;;;;;;1.00;0.93;;;;;;;;;;4959339;28;92669;-51
2023/05/22 05:06:02;;;;;;;1.97;1.10;;;;;;;;;;4960176;28;94150;-51
2023/05/22 05:08:31;;;;;;;2.27;0.87;;;;;;;;;;4960654;28;92805;-51
2023/05/22 05:10:59;;;;;;;1.00;0.90;;;;;;;;;;4960868;28;92143;-51
2023/05/22 05:13:29;;;;;;;0.70;0.70;;;;;;;;;;4960303;28;93013;-51
2023/05/22 05:15:58;;;;;;;0.47;0.47;;;;;;;;;;4960563;28;95063;-51
2023/05/22 05:18:26;;;;;;;1.70;1.00;;;;;;;;;;4959858;28;95095;-51
2023/05/22 05:20:55;;;;;;;3.07;1.33;;;;;;;;;;4960607;28;92092;-49
2023/05/22 05:23:23;;;;;;;2.97;0.97;;;;;;;;;;4960473;28;92064;-50
2023/05/22 05:25:51;;;;;;;2.47;0.63;;;;;;;;;;4960262;28;94339;-50
2023/05/22 05:28:20;;;;;;;0.80;0.70;;;;;;;;;;4959592;28;93911;-50
2023/05/22 05:30:50;;;;;;;0.53;0.53;;;;;;;;;;4960674;28;92083;-49
2023/05/22 05:33:18;;;;;;;0.67;0.50;;;;;;;;;;4959878;28;91410;-53
2023/05/22 05:35:49;;;;;;;0.60;0.60;;;;;;;;;;4959421;28;94075;-54
2023/05/22 05:38:17;;;;;;;1.27;1.00;;;;;;;;;;4959527;28;93998;-53
2023/05/22 05:40:45;;;;;;;0.53;0.53;;;;;;;;;;4960243;28;92988;-53
2023/05/22 05:43:14;;;;;;;0.77;0.60;;;;;;;;;;4959983;28;92055;-53
2023/05/22 05:45:43;;;;;;;1.27;0.90;;;;;;;;;;4957324;28;93148;-53
2023/05/22 05:48:13;;;;;;;1.60;1.27;;;;;;;;;;4959353;28;93891;-53
2023/05/22 05:50:41;;;;;;;3.13;1.17;;;;;;;;;;4958979;28;92186;-54
2023/05/22 05:53:09;;;;;;;3.07;1.30;;;;;;;;;;4959700;28;92076;-52
2023/05/22 05:55:38;;;;;;;3.93;1.33;;;;;;;;;;4959717;28;93328;-53
2023/05/22 05:58:06;;;;;;;4.70;2.00;;;;;;;;;;4959868;28;92941;-54
2023/05/22 06:00:35;;;;;;;3.97;1.80;;;;;;;;;;4959813;28;92057;-54
2023/05/22 06:03:03;;;;;;;4.17;1.53;;;;;;;;;;4959843;28;92237;-54
2023/05/22 06:05:33;;;;;;;4.20;2.30;;;;;;;;;;4958217;28;95029;-53
2023/05/22 06:08:03;;;;;;;4.17;1.87;;;;;;;;;;4957192;28;93675;-51
2023/05/22 06:10:31;;;;;;;2.80;1.70;;;;;;;;;;4957997;28;92206;-51
2023/05/22 06:13:00;;;;;;;7.27;2.27;;;;;;;;;;4959363;28;92101;-51
2023/05/22 06:15:29;;;;;;;3.57;1.77;;;;;;;;;;4959493;28;93986;-51
2023/05/22 06:17:57;;;;;;;4.40;1.50;;;;;;;;;;4959848;28;92968;-51
2023/05/22 06:20:26;;;;;;;3.43;2.13;;;;;;;;;;4960323;28;92108;-51
2023/05/22 06:22:56;;;;;;;3.93;1.73;;;;;;;;;;4960712;28;91271;-51
2023/05/22 06:25:25;;;;;;;4.10;1.80;;;;;;;;;;4959117;28;93280;-51
2023/05/22 06:27:53;;;;;;;3.30;2.03;;;;;;;;;;4959704;28;94082;-51
2023/05/22 06:30:21;;;;;;;5.93;2.40;;;;;;;;;;4959838;28;92977;-51
2023/05/22 06:33:07;;;;;;;4.63;2.00;;;;;;;;;;4959264;28;91943;-51
2023/05/22 06:35:36;;;;;;;3.57;1.93;;;;;;;;;;4959102;28;94110;-51
2023/05/22 06:38:05;;;;;;;4.67;2.37;;;;;;;;;;4959754;28;93881;-51
2023/05/22 06:40:34;;;;;;;2.03;1.27;;;;;;;;;;4960088;28;92074;-51
2023/05/22 06:43:02;;;;;;;3.43;1.70;;;;;;;;;;4959315;28;91894;-51
2023/05/22 06:45:30;;;;;;;3.23;1.60;;;;;;;;;;4958904;28;93177;-52
2023/05/22 06:47:59;;;;;;;4.87;2.20;;;;;;;;;;4959762;28;94000;-51
2023/05/22 06:50:27;;;;;;;3.30;1.97;;;;;;;;;;4959828;28;91918;-51
2023/05/22 06:52:56;;;;;;;2.37;1.40;;;;;;;;;;4960050;28;92017;-51
2023/05/22 06:55:25;;;;;;;5.20;2.17;;;;;;;;;;4958386;28;95146;-51
2023/05/22 06:57:54;;;;;;;4.23;2.20;;;;;;;;;;4959586;28;93762;-51
2023/05/22 07:00:22;;;;;;;4.83;2.07;;;;;;;;;;4961454;28;92118;-51
2023/05/22 07:02:51;;;;;;;1.93;1.50;;;;;;;;;;4963004;28;92178;-51
2023/05/22 07:05:19;;;;;;;3.90;1.93;;;;;;;;;;4962862;28;93131;-51
2023/05/22 07:07:47;;;;;;;10.37;2.17;;;;;;;;;;4962720;28;93792;-52
2023/05/22 07:10:16;;;;;;;3.03;2.07;;;;;;;;;;4962910;28;92318;-51
2023/05/22 07:12:46;;;;;;;5.40;2.47;;;;;;;;;;4963084;28;91226;-52
2023/05/22 07:15:14;;;;;;;1.97;1.53;;;;;;;;;;4962608;28;94217;-51
2023/05/22 07:17:42;;;;;;;2.77;1.93;;;;;;;;;;4962925;28;93955;-51
2023/05/22 07:20:11;;;;;;;4.47;1.87;;;;;;;;;;4962583;28;92898;-52
2023/05/22 07:22:39;;;;;;;5.63;2.00;;;;;;;;;;4962642;28;92007;-51
2023/05/22 07:25:08;;;;;;;5.73;2.60;;;;;;;;;;4962171;28;94203;-51
2023/05/22 07:27:36;;;;;;;5.27;2.17;;;;;;;;;;4961922;28;93020;-51
2023/05/22 07:30:07;;;;;;;5.60;2.23;;;;;;;;;;4962333;28;92040;-51
2023/05/22 07:32:35;;;;;;;6.33;2.53;;;;;;;;;;4962360;28;92146;-51
2023/05/22 07:35:04;;;;;;;4.80;1.83;;;;;;;;;;4961768;28;93119;-51
2023/05/22 07:37:32;;;;;;;3.20;1.80;;;;;;;;;;4962551;28;93880;-51
2023/05/22 07:40:01;;;;;;;2.13;1.50;;;;;;;;;;4962911;28;92075;-51
2023/05/22 07:42:29;;;;;;;6.40;2.23;;;;;;;;;;4962199;28;92114;-51
2023/05/22 07:44:57;;;;;;;2.97;2.20;;;;;;;;;;4961447;28;95226;-51
2023/05/22 07:47:27;;;;;;;6.30;2.23;;;;;;;;;;4962206;28;93553;-51
2023/05/22 07:49:55;;;;;;;10.53;2.40;;;;;;;;;;4962841;28;92061;-51
2023/05/22 07:52:24;;;;;;;2.60;1.83;;;;;;;;;;4962436;28;92129;-51
2023/05/22 07:54:52;;;;;;;3.70;1.77;;;;;;;;;;4962049;28;92965;-51
2023/05/22 07:57:21;;;;;;;2.30;2.10;;;;;;;;;;4961647;28;93868;-51
2023/05/22 07:59:50;;;;;;;3.00;2.00;;;;;;;;;;4962153;28;92089;-51
2023/05/22 08:02:18;;;;;;;6.87;2.43;;;;;;;;;;4962527;28;91428;-51
2023/05/22 08:04:49;;;;;;;3.27;1.83;;;;;;;;;;4962109;28;93116;-51
2023/05/22 08:07:17;;;;;;;7.30;2.33;;;;;;;;;;4961582;28;92052;-51
2023/05/22 08:09:46;;;;;;;7.30;2.23;;;;;;;;;;4960817;28;93004;-51
2023/05/22 08:12:14;;;;;;;3.23;1.97;;;;;;;;;;4961692;28;92131;-51
2023/05/22 08:14:42;;;;;;;4.30;1.53;;;;;;;;;;4961509;28;94476;-52
2023/05/22 08:17:11;;;;;;;7.57;2.47;;;;;;;;;;4961398;28;93948;-51
2023/05/22 08:19:40;;;;;;;7.13;1.83;;;;;;;;;;4962124;28;91940;-51
2023/05/22 08:22:10;;;;;;;6.43;2.23;;;;;;;;;;4961876;28;92077;-52
2023/05/22 08:24:38;;;;;;;3.90;2.17;;;;;;;;;;4961401;28;93185;-51
2023/05/22 08:27:07;;;;;;;5.27;2.50;;;;;;;;;;4959956;28;92825;-51
2023/05/22 08:29:35;;;;;;;2.53;1.60;;;;;;;;;;4962462;28;91882;-51
2023/05/22 08:32:04;;;;;;;1.53;1.43;;;;;;;;;;4961422;28;92109;-52
2023/05/22 08:34:32;;;;;;;3.03;1.73;;;;;;;;;;4960437;28;94196;-52
2023/05/22 08:37:01;;;;;;;4.37;1.90;;;;;;;;;;4961236;28;94981;-51
2023/05/22 08:39:30;;;;;;;3.33;1.80;;;;;;;;;;4961664;28;92086;-51
2023/05/22 08:41:59;;;;;;;5.57;2.47;;;;;;;;;;4961598;28;92044;-51
2023/05/22 08:44:27;;;;;;;4.37;2.20;;;;;;;;;;4961396;28;93996;-52
2023/05/22 08:46:58;;;;;;;3.60;2.20;;;;;;;;;;4961181;28;94106;-51
2023/05/22 08:49:27;;;;;;;7.10;1.97;;;;;;;;;;4962138;28;92091;-52
2023/05/22 08:51:57;;;;;;;6.00;1.90;;;;;;;;;;4962324;28;91374;-52
2023/05/22 08:54:25;;;;;;;7.73;2.13;;;;;;;;;;4961185;28;93457;-52
2023/05/22 08:56:55;;;;;;;4.60;1.87;;;;;;;;;;4960716;28;93473;-51
2023/05/22 08:59:24;;;;;;;3.33;2.03;;;;;;;;;;4960621;28;93758;-51
2023/05/22 09:01:53;;;;;;;2.00;1.80;;;;;;;;;;4961095;28;92082;-51
2023/05/22 09:04:22;;;;;;;4.10;1.53;;;;;;;;;;4960966;28;93193;-51
2023/05/22 09:06:51;;;;;;;2.77;1.57;;;;;;;;;;4960959;28;92668;-52
2023/05/22 09:09:20;;;;;;;4.30;1.77;;;;;;;;;;4961419;28;92014;-52
2023/05/22 09:11:48;;;;;;;3.27;1.80;;;;;;;;;;4960939;28;92058;-51
2023/05/22 09:14:18;;;;;;;6.43;2.00;;;;;;;;;;4960638;28;93083;-51
2023/05/22 09:16:46;;;;;;;3.60;1.83;;;;;;;;;;4960672;28;92827;-52
2023/05/22 09:19:15;;;;;;;1.50;1.30;;;;;;;;;;4961104;28;92022;-52
2023/05/22 09:21:44;;;;;;;3.07;2.50;;;;;;;;;;4960429;28;91905;-51
2023/05/22 09:24:13;;;;;;;2.70;1.90;;;;;;;;;;4959939;28;94066;-51
2023/05/22 09:26:41;;;;;;;2.27;1.93;;;;;;;;;;4959785;28;94958;-52
2023/05/22 09:29:09;;;;;;;3.17;1.73;;;;;;;;;;4960530;28;92150;-51
2023/05/22 09:31:42;;;;;;;6.23;2.00;;;;;;;;;;4960884;28;92135;-51
2023/05/22 09:34:12;;;;;;;2.07;1.33;;;;;;;;;;4959940;28;93322;-51
2023/05/22 09:36:41;;;;;;;6.37;2.13;;;;;;;;;;4960334;28;93898;-51
2023/05/22 09:39:09;;;;;;;3.53;2.07;;;;;;;;;;4960471;28;92010;-51
2023/05/22 09:41:38;;;;;;;6.80;1.70;;;;;;;;;;4959571;28;91420;-51
2023/05/22 09:44:13;;;;;;;3.23;1.63;;;;;;;;;;4945994;28;94340;-51
2023/05/22 09:46:44;;;;;;;5.57;2.13;;;;;;;;;;4960123;28;92747;-51
2023/05/22 09:49:13;;;;;;;1.80;1.60;;;;;;;;;;4959784;28;93130;-52
2023/05/22 09:51:46;;;;;;;4.27;2.87;;;;;;;;;;4959976;28;91887;-52
2023/05/22 09:54:15;;;;;;;2.03;1.83;;;;;;;;;;4978402;28;93188;-51
2023/05/22 09:56:43;;;;;;;3.33;2.20;;;;;;;;;;4979018;28;93004;-52
2023/05/22 09:59:12;;;;;;;4.03;1.47;;;;;;;;;;4980043;28;92191;-52
2023/05/22 10:01:41;;;;;;;2.70;1.70;;;;;;;;;;4979827;28;91988;-52
2023/05/22 10:04:12;;;;;;;4.47;1.90;;;;;;;;;;4979466;28;91959;-51
2023/05/22 10:06:41;;;;;;;5.20;2.13;;;;;;;;;;4980109;28;93816;-51
2023/05/22 10:09:10;;;;;;;4.73;2.13;;;;;;;;;;4980060;28;91975;-52
2023/05/22 10:11:38;;;;;;;2.30;1.80;;;;;;;;;;4979748;28;91968;-53
2023/05/22 10:14:06;;;;;;;2.87;2.23;;;;;;;;;;4978722;28;94218;-51
2023/05/22 10:16:36;;;;;;;2.07;1.57;;;;;;;;;;4979319;28;94771;-52
2023/05/22 10:19:05;;;;;;;3.77;1.53;;;;;;;;;;4979829;28;91810;-52
2023/05/22 10:21:35;;;;;;;5.13;2.07;;;;;;;;;;4979862;28;91986;-52
2023/05/22 10:24:04;;;;;;;3.07;2.13;;;;;;;;;;4979305;28;94205;-52
2023/05/22 10:26:32;;;;;;;3.80;2.50;;;;;;;;;;4979140;28;93806;-52
2023/05/22 10:29:01;;;;;;;5.63;1.90;;;;;;;;;;4979382;28;92028;-50
2023/05/22 10:31:33;;;;;;;3.30;2.20;;;;;;;;;;4974662;28;91315;-52
2023/05/22 10:34:02;;;;;;;5.73;2.27;;;;;;;;;;4956370;28;93434;-52
2023/05/22 10:36:33;;;;;;;5.53;2.37;;;;;;;;;;4959347;28;94612;-52
2023/05/22 10:39:08;;;;;;;8.47;2.47;;;;;;;;;;4957835;28;93043;-52
2023/05/22 10:41:36;;;;;;;4.70;1.97;;;;;;;;;;4953283;28;92161;-52
2023/05/22 10:44:04;;;;;;;4.00;1.87;;;;;;;;;;4972134;28;94285;-52
2023/05/22 10:46:33;;;;;;;2.13;1.93;;;;;;;;;;4967007;28;92884;-52
2023/05/22 10:49:02;;;;;;;4.23;1.93;;;;;;;;;;4959644;28;92089;-51
2023/05/22 10:51:31;;;;;;;3.80;2.50;;;;;;;;;;4959723;28;92111;-52
2023/05/22 10:54:01;;;;;;;3.83;2.00;;;;;;;;;;4959361;28;94224;-52
2023/05/22 10:56:35;;;;;;;2.87;1.83;;;;;;;;;;4959529;28;93985;-52
2023/05/22 10:59:06;;;;;;;4.73;2.50;;;;;;;;;;4959177;28;92145;-52
2023/05/22 11:01:36;;;;;;;3.57;2.07;;;;;;;;;;4959242;28;92133;-52
2023/05/22 11:04:12;;;;;;;1.50;1.40;;;;;;;;;;4962558;28;93855;-52
2023/05/22 11:06:40;;;;;;;3.63;1.80;;;;;;;;;;4977068;28;93747;-52
2023/05/22 11:09:19;;;;;;;7.13;2.20;;;;;;;;;;4978183;28;92045;-53
2023/05/22 11:11:48;;;;;;;4.03;1.53;;;;;;;;;;4978036;28;92001;-52
2023/05/22 11:14:18;;;;;;;4.03;2.53;;;;;;;;;;4978639;28;93298;-52
2023/05/22 11:16:46;;;;;;;4.57;1.90;;;;;;;;;;4969220;28;93994;-52
2023/05/22 11:19:14;;;;;;;6.00;1.90;;;;;;;;;;4957686;28;94583;-52
2023/05/22 11:21:51;;;;;;;3.10;1.97;;;;;;;;;;4957850;28;91233;-52
2023/05/22 11:24:19;;;;;;;3.87;2.00;;;;;;;;;;4957093;28;94054;-52
2023/05/22 11:27:02;;;;;;;3.77;2.13;;;;;;;;;;4956132;28;92964;-52
2023/05/22 11:29:31;;;;;;;7.77;2.53;;;;;;;;;;4955651;28;93616;-52
2023/05/22 11:31:59;;;;;;;3.70;1.67;;;;;;;;;;4959534;28;92719;-52
2023/05/22 11:34:27;;;;;;;3.37;2.00;;;;;;;;;;4975993;28;94189;-52
2023/05/22 11:36:59;;;;;;;7.27;1.60;;;;;;;;;;4977025;28;92816;-52
2023/05/22 11:39:27;;;;;;;4.70;2.27;;;;;;;;;;4978508;28;91979;-52
2023/05/22 11:41:56;;;;;;;1.90;1.60;;;;;;;;;;4978756;28;92111;-52
2023/05/22 11:44:25;;;;;;;4.53;2.27;;;;;;;;;;4978155;28;93215;-52
2023/05/22 11:46:54;;;;;;;2.83;1.97;;;;;;;;;;4967556;28;92814;-52
2023/05/22 11:49:24;;;;;;;6.00;2.47;;;;;;;;;;4969652;28;92148;-52
2023/05/22 11:51:52;;;;;;;2.83;1.97;;;;;;;;;;4960911;28;92633;-52
2023/05/22 11:54:21;;;;;;;2.43;2.17;;;;;;;;;;4952663;28;94137;-52
2023/05/22 11:56:49;;;;;;;4.20;1.93;;;;;;;;;;4955168;28;94969;-52
2023/05/22 11:59:17;;;;;;;6.00;2.40;;;;;;;;;;4962016;28;92019;-52
2023/05/22 12:01:47;;;;;;;4.67;2.20;;;;;;;;;;4961333;28;92686;-52
2023/05/22 12:04:15;;;;;;;6.20;1.70;;;;;;;;;;4953029;28;92092;-51
2023/05/22 12:06:44;;;;;;;4.23;2.33;;;;;;;;;;4960909;28;93876;-52
2023/05/22 12:09:13;;;;;;;6.57;2.57;;;;;;;;;;4961423;28;92068;-52
2023/05/22 12:11:41;;;;;;;3.33;1.60;;;;;;;;;;4961547;28;91751;-52
2023/05/22 12:14:11;;;;;;;3.40;2.20;;;;;;;;;;4961078;28;94108;-52
2023/05/22 12:16:40;;;;;;;2.67;1.77;;;;;;;;;;4960615;28;93213;-52
2023/05/22 12:19:10;;;;;;;3.60;2.57;;;;;;;;;;4945292;28;92920;-52
2023/05/22 12:21:40;;;;;;;5.50;1.70;;;;;;;;;;4961182;28;92759;-52
2023/05/22 12:24:08;;;;;;;5.37;1.53;;;;;;;;;;4960814;28;93174;-52
2023/05/22 12:26:37;;;;;;;4.20;1.77;;;;;;;;;;4960747;28;92913;-52
2023/05/22 12:29:05;;;;;;;2.77;1.73;;;;;;;;;;4961130;28;91958;-52
2023/05/22 12:31:37;;;;;;;2.97;1.60;;;;;;;;;;4961303;28;92076;-52
2023/05/22 12:34:07;;;;;;;2.20;2.00;;;;;;;;;;4960240;28;93107;-52
2023/05/22 12:36:38;;;;;;;2.40;1.63;;;;;;;;;;4961425;28;92770;-52
2023/05/22 12:39:08;;;;;;;7.90;2.03;;;;;;;;;;4950957;28;92100;-52
2023/05/22 12:41:37;;;;;;;4.17;1.47;;;;;;;;;;4960681;28;92041;-52
2023/05/22 12:44:05;;;;;;;7.00;1.90;;;;;;;;;;4958685;28;95262;-52
2023/05/22 12:46:34;;;;;;;2.30;1.70;;;;;;;;;;4959221;28;94944;-52
2023/05/22 12:49:02;;;;;;;2.73;1.77;;;;;;;;;;4960919;28;92158;-52
2023/05/22 12:51:31;;;;;;;3.10;1.77;;;;;;;;;;4951903;28;95256;-52
2023/05/22 12:54:01;;;;;;;2.27;2.00;;;;;;;;;;4950834;28;92990;-52
2023/05/22 12:56:29;;;;;;;2.40;1.60;;;;;;;;;;4954320;28;92864;-52
2023/05/22 12:58:58;;;;;;;2.23;1.77;;;;;;;;;;4960943;28;92093;-52
2023/05/22 13:01:26;;;;;;;3.73;1.50;;;;;;;;;;4947451;28;91303;-52
2023/05/22 13:03:55;;;;;;;4.27;1.90;;;;;;;;;;4947963;28;93063;-52
2023/05/22 13:06:23;;;;;;;6.03;2.23;;;;;;;;;;4957964;28;93961;-52
2023/05/22 13:08:51;;;;;;;2.23;1.80;;;;;;;;;;4960428;28;93019;-52
2023/05/22 13:11:22;;;;;;;3.60;1.70;;;;;;;;;;4960306;28;92340;-52
2023/05/22 13:13:50;;;;;;;6.47;2.47;;;;;;;;;;4959797;28;92911;-52
2023/05/22 13:16:19;;;;;;;2.97;1.57;;;;;;;;;;4960561;28;92967;-52
2023/05/22 13:18:47;;;;;;;3.23;2.43;;;;;;;;;;4960253;28;91997;-52
2023/05/22 13:21:16;;;;;;;2.50;1.83;;;;;;;;;;4960448;28;92608;-52
2023/05/22 13:23:44;;;;;;;2.93;1.87;;;;;;;;;;4959760;28;94209;-52
2023/05/22 13:26:13;;;;;;;2.57;1.50;;;;;;;;;;4959716;28;92461;-52
2023/05/22 13:28:42;;;;;;;2.97;1.77;;;;;;;;;;4960216;28;92093;-52
2023/05/22 13:31:10;;;;;;;2.27;1.60;;;;;;;;;;4958655;28;92028;-52
2023/05/22 13:33:39;;;;;;;3.70;1.53;;;;;;;;;;4953460;28;94259;-52
2023/05/22 13:36:08;;;;;;;2.33;1.80;;;;;;;;;;4958113;28;93728;-52
2023/05/22 13:38:36;;;;;;;3.23;1.47;;;;;;;;;;4959768;28;92228;-52
2023/05/22 13:41:05;;;;;;;3.43;1.40;;;;;;;;;;4959817;28;92206;-52
2023/05/22 13:43:33;;;;;;;4.57;1.90;;;;;;;;;;4959326;28;93174;-52
2023/05/22 13:46:03;;;;;;;6.90;2.13;;;;;;;;;;4959420;28;94021;-52
2023/05/22 13:48:31;;;;;;;3.07;1.87;;;;;;;;;;4963291;28;92025;-52
2023/05/22 13:51:00;;;;;;;2.43;1.20;;;;;;;;;;4963940;28;91351;-52
2023/05/22 13:53:28;;;;;;;2.83;1.60;;;;;;;;;;4953426;28;93098;-52
2023/05/22 13:55:56;;;;;;;1.97;1.77;;;;;;;;;;4956808;28;92817;-52
2023/05/22 13:58:25;;;;;;;3.97;1.70;;;;;;;;;;4959078;28;93057;-52
2023/05/22 14:00:53;;;;;;;1.70;1.17;;;;;;;;;;4959662;28;92154;-52
2023/05/22 14:03:23;;;;;;;3.63;1.63;;;;;;;;;;4959270;28;94113;-52
2023/05/22 14:05:51;;;;;;;2.97;1.40;;;;;;;;;;4958771;28;93844;-52
2023/05/22 14:08:20;;;;;;;6.70;1.97;;;;;;;;;;4958393;28;93589;-53
2023/05/22 14:10:48;;;;;;;1.53;1.43;;;;;;;;;;4970312;28;92060;-52
2023/05/22 14:13:16;;;;;;;5.63;2.67;;;;;;;;;;4978855;28;94282;-52
2023/05/22 14:15:46;;;;;;;3.33;2.37;;;;;;;;;;4978167;28;94863;-52
2023/05/22 14:18:15;;;;;;;3.93;1.87;;;;;;;;;;4979797;28;92120;-52
2023/05/22 14:20:45;;;;;;;7.40;2.17;;;;;;;;;;4979540;28;92008;-52
2023/05/22 14:23:13;;;;;;;3.57;1.73;;;;;;;;;;4978583;28;94134;-52
2023/05/22 14:25:43;;;;;;;3.63;1.53;;;;;;;;;;4979226;28;94935;-52
2023/05/22 14:28:11;;;;;;;3.00;1.67;;;;;;;;;;4979354;28;92174;-52
2023/05/22 14:30:40;;;;;;;5.77;2.13;;;;;;;;;;4979196;28;92078;-52